sensor_id;sensor_type;location;lat;lon;timestamp;P1;durP1;ratioP1;P2;durP2;ratioP2
42632;SDS011;28261;53.304;-6.284;2023-03-01T00:01:22;5.70;;;3.42;;
42632;SDS011;28261;53.304;-6.284;2023-03-01T00:03:27;9.73;;;4.32;;
42632;SDS011;28261;53.304;-6.284;2023-03-01T00:05:30;6.47;;;3.88;;
42632;SDS011;28261;53.304;-6.284;2023-03-01T00:07:34;8.68;;;3.50;;
42632;SDS011;28261;53.304;-6.284;2023-03-01T00:09:38;6.15;;;3.42;;
42632;SDS011;28261;53.304;-6.284;2023-03-01T00:11:41;7.10;;;3.08;;
42632;SDS011;28261;53.304;-6.284;2023-03-01T00:13:46;7.85;;;3.30;;
42632;SDS011;28261;53.304;-6.284;2023-03-01T00:15:51;5.38;;;3.05;;
42632;SDS011;28261;53.304;-6.284;2023-03-01T00:17:56;5.10;;;3.38;;
42632;SDS011;28261;53.304;-6.284;2023-03-01T00:19:59;8.10;;;3.15;;
42632;SDS011;28261;53.304;-6.284;2023-03-01T00:22:02;3.83;;;2.97;;
42632;SDS011;28261;53.304;-6.284;2023-03-01T00:24:06;5.32;;;2.55;;
42632;SDS011;28261;53.304;-6.284;2023-03-01T00:26:11;6.95;;;2.83;;
42632;SDS011;28261;53.304;-6.284;2023-03-01T00:28:16;6.40;;;2.53;;
42632;SDS011;28261;53.304;-6.284;2023-03-01T00:30:20;6.32;;;2.25;;
42632;SDS011;28261;53.304;-6.284;2023-03-01T00:32:24;5.90;;;1.80;;
42632;SDS011;28261;53.304;-6.284;2023-03-01T00:34:29;6.78;;;1.00;;
42632;SDS011;28261;53.304;-6.284;2023-03-01T00:36:34;1.38;;;0.70;;
42632;SDS011;28261;53.304;-6.284;2023-03-01T00:38:40;5.78;;;0.80;;
42632;SDS011;28261;53.304;-6.284;2023-03-01T00:40:45;2.58;;;0.70;;
42632;SDS011;28261;53.304;-6.284;2023-03-01T00:42:48;2.67;;;0.73;;
42632;SDS011;28261;53.304;-6.284;2023-03-01T00:44:52;5.95;;;0.80;;
42632;SDS011;28261;53.304;-6.284;2023-03-01T00:46:55;2.83;;;0.80;;
42632;SDS011;28261;53.304;-6.284;2023-03-01T00:48:59;2.90;;;0.70;;
42632;SDS011;28261;53.304;-6.284;2023-03-01T00:51:06;5.05;;;0.55;;
42632;SDS011;28261;53.304;-6.284;2023-03-01T00:53:11;3.88;;;0.63;;
42632;SDS011;28261;53.304;-6.284;2023-03-01T00:55:14;1.77;;;0.60;;
42632;SDS011;28261;53.304;-6.284;2023-03-01T00:57:18;3.30;;;0.60;;
42632;SDS011;28261;53.304;-6.284;2023-03-01T00:59:22;5.82;;;0.98;;
42632;SDS011;28261;53.304;-6.284;2023-03-01T01:01:26;3.97;;;0.70;;
42632;SDS011;28261;53.304;-6.284;2023-03-01T01:03:32;3.53;;;0.70;;
42632;SDS011;28261;53.304;-6.284;2023-03-01T01:05:36;2.60;;;0.60;;
42632;SDS011;28261;53.304;-6.284;2023-03-01T01:07:40;0.50;;;0.50;;
42632;SDS011;28261;53.304;-6.284;2023-03-01T01:09:44;0.32;;;0.32;;
42632;SDS011;28261;53.304;-6.284;2023-03-01T01:11:48;2.35;;;0.40;;
42632;SDS011;28261;53.304;-6.284;2023-03-01T01:13:53;1.00;;;0.65;;
42632;SDS011;28261;53.304;-6.284;2023-03-01T01:16:00;0.90;;;0.40;;
42632;SDS011;28261;53.304;-6.284;2023-03-01T01:18:04;2.00;;;0.93;;
42632;SDS011;28261;53.304;-6.284;2023-03-01T01:20:10;3.65;;;0.47;;
42632;SDS011;28261;53.304;-6.284;2023-03-01T01:22:14;0.40;;;0.40;;
42632;SDS011;28261;53.304;-6.284;2023-03-01T01:24:19;0.30;;;0.30;;
42632;SDS011;28261;53.304;-6.284;2023-03-01T01:28:27;0.73;;;0.73;;
42632;SDS011;28261;53.304;-6.284;2023-03-01T01:30:31;0.60;;;0.32;;
42632;SDS011;28261;53.304;-6.284;2023-03-01T01:32:34;1.85;;;0.52;;
42632;SDS011;28261;53.304;-6.284;2023-03-01T01:34:38;0.43;;;0.43;;
42632;SDS011;28261;53.304;-6.284;2023-03-01T01:36:41;3.33;;;0.52;;
42632;SDS011;28261;53.304;-6.284;2023-03-01T01:38:45;1.67;;;0.47;;
42632;SDS011;28261;53.304;-6.284;2023-03-01T01:40:51;0.30;;;0.30;;
42632;SDS011;28261;53.304;-6.284;2023-03-01T01:42:55;1.33;;;0.50;;
42632;SDS011;28261;53.304;-6.284;2023-03-01T01:47:31;3.10;;;0.50;;
42632;SDS011;28261;53.304;-6.284;2023-03-01T01:49:36;2.00;;;0.75;;
42632;SDS011;28261;53.304;-6.284;2023-03-01T01:51:44;2.17;;;0.60;;
42632;SDS011;28261;53.304;-6.284;2023-03-01T01:53:51;0.95;;;0.70;;
42632;SDS011;28261;53.304;-6.284;2023-03-01T01:55:59;2.05;;;0.50;;
42632;SDS011;28261;53.304;-6.284;2023-03-01T01:58:04;1.92;;;0.47;;
42632;SDS011;28261;53.304;-6.284;2023-03-01T02:00:13;2.13;;;0.68;;
42632;SDS011;28261;53.304;-6.284;2023-03-01T02:02:20;1.80;;;0.47;;
42632;SDS011;28261;53.304;-6.284;2023-03-01T02:04:24;1.70;;;0.32;;
42632;SDS011;28261;53.304;-6.284;2023-03-01T02:06:29;3.47;;;0.55;;
42632;SDS011;28261;53.304;-6.284;2023-03-01T02:08:36;1.45;;;0.57;;
42632;SDS011;28261;53.304;-6.284;2023-03-01T02:10:43;0.82;;;0.38;;
42632;SDS011;28261;53.304;-6.284;2023-03-01T02:12:49;2.67;;;0.30;;
42632;SDS011;28261;53.304;-6.284;2023-03-01T02:14:53;2.50;;;1.25;;
42632;SDS011;28261;53.304;-6.284;2023-03-01T02:16:56;1.75;;;0.40;;
42632;SDS011;28261;53.304;-6.284;2023-03-01T02:19:00;3.63;;;0.50;;
42632;SDS011;28261;53.304;-6.284;2023-03-01T02:21:10;4.57;;;0.63;;
42632;SDS011;28261;53.304;-6.284;2023-03-01T02:23:20;2.28;;;0.50;;
42632;SDS011;28261;53.304;-6.284;2023-03-01T02:25:31;1.20;;;0.45;;
42632;SDS011;28261;53.304;-6.284;2023-03-01T02:27:45;0.60;;;0.50;;
42632;SDS011;28261;53.304;-6.284;2023-03-01T02:29:56;1.30;;;0.60;;
42632;SDS011;28261;53.304;-6.284;2023-03-01T02:34:04;3.10;;;0.60;;
42632;SDS011;28261;53.304;-6.284;2023-03-01T02:36:09;1.60;;;0.52;;
42632;SDS011;28261;53.304;-6.284;2023-03-01T02:38:16;1.85;;;1.13;;
42632;SDS011;28261;53.304;-6.284;2023-03-01T02:40:20;3.00;;;0.50;;
42632;SDS011;28261;53.304;-6.284;2023-03-01T02:42:26;3.97;;;1.25;;
42632;SDS011;28261;53.304;-6.284;2023-03-01T02:44:34;5.05;;;0.50;;
42632;SDS011;28261;53.304;-6.284;2023-03-01T02:46:43;2.80;;;0.88;;
42632;SDS011;28261;53.304;-6.284;2023-03-01T02:48:49;6.05;;;0.55;;
42632;SDS011;28261;53.304;-6.284;2023-03-01T02:51:00;3.13;;;0.55;;
42632;SDS011;28261;53.304;-6.284;2023-03-01T02:53:09;1.38;;;0.85;;
42632;SDS011;28261;53.304;-6.284;2023-03-01T02:55:18;3.42;;;0.90;;
42632;SDS011;28261;53.304;-6.284;2023-03-01T02:57:21;2.03;;;0.60;;
42632;SDS011;28261;53.304;-6.284;2023-03-01T02:59:27;4.20;;;0.50;;
42632;SDS011;28261;53.304;-6.284;2023-03-01T03:01:35;3.08;;;0.43;;
42632;SDS011;28261;53.304;-6.284;2023-03-01T03:03:45;2.80;;;0.73;;
42632;SDS011;28261;53.304;-6.284;2023-03-01T03:05:49;2.83;;;0.90;;
42632;SDS011;28261;53.304;-6.284;2023-03-01T03:07:52;4.22;;;0.88;;
42632;SDS011;28261;53.304;-6.284;2023-03-01T03:09:57;3.33;;;1.15;;
42632;SDS011;28261;53.304;-6.284;2023-03-01T03:12:01;2.70;;;0.43;;
42632;SDS011;28261;53.304;-6.284;2023-03-01T03:14:05;4.80;;;1.52;;
42632;SDS011;28261;53.304;-6.284;2023-03-01T03:16:16;2.25;;;0.73;;
42632;SDS011;28261;53.304;-6.284;2023-03-01T03:18:19;4.40;;;0.77;;
42632;SDS011;28261;53.304;-6.284;2023-03-01T03:20:26;4.43;;;0.52;;
42632;SDS011;28261;53.304;-6.284;2023-03-01T03:22:31;3.72;;;0.80;;
42632;SDS011;28261;53.304;-6.284;2023-03-01T03:24:35;1.08;;;0.50;;
42632;SDS011;28261;53.304;-6.284;2023-03-01T03:26:40;4.60;;;0.80;;
42632;SDS011;28261;53.304;-6.284;2023-03-01T03:28:43;0.75;;;0.60;;
42632;SDS011;28261;53.304;-6.284;2023-03-01T03:30:48;3.80;;;0.70;;
42632;SDS011;28261;53.304;-6.284;2023-03-01T03:32:51;5.00;;;1.40;;
42632;SDS011;28261;53.304;-6.284;2023-03-01T03:34:55;0.85;;;0.50;;
42632;SDS011;28261;53.304;-6.284;2023-03-01T03:37:00;2.92;;;0.63;;
42632;SDS011;28261;53.304;-6.284;2023-03-01T03:39:04;2.72;;;0.70;;
42632;SDS011;28261;53.304;-6.284;2023-03-01T03:41:07;1.85;;;0.77;;
42632;SDS011;28261;53.304;-6.284;2023-03-01T03:43:13;5.10;;;0.40;;
42632;SDS011;28261;53.304;-6.284;2023-03-01T03:45:17;1.08;;;0.52;;
42632;SDS011;28261;53.304;-6.284;2023-03-01T03:47:21;2.40;;;0.40;;
42632;SDS011;28261;53.304;-6.284;2023-03-01T03:49:24;1.95;;;0.45;;
42632;SDS011;28261;53.304;-6.284;2023-03-01T03:51:28;1.80;;;0.68;;
42632;SDS011;28261;53.304;-6.284;2023-03-01T03:53:33;1.75;;;0.55;;
42632;SDS011;28261;53.304;-6.284;2023-03-01T03:57:41;3.08;;;0.60;;
42632;SDS011;28261;53.304;-6.284;2023-03-01T03:59:44;3.75;;;0.60;;
42632;SDS011;28261;53.304;-6.284;2023-03-01T04:01:47;1.77;;;0.70;;
42632;SDS011;28261;53.304;-6.284;2023-03-01T04:03:51;2.47;;;0.60;;
42632;SDS011;28261;53.304;-6.284;2023-03-01T04:05:57;2.38;;;0.60;;
42632;SDS011;28261;53.304;-6.284;2023-03-01T04:08:00;2.72;;;0.32;;
42632;SDS011;28261;53.304;-6.284;2023-03-01T04:10:11;4.13;;;0.90;;
42632;SDS011;28261;53.304;-6.284;2023-03-01T04:12:16;2.25;;;0.40;;
42632;SDS011;28261;53.304;-6.284;2023-03-01T04:14:24;4.70;;;0.52;;
42632;SDS011;28261;53.304;-6.284;2023-03-01T04:16:27;3.70;;;0.52;;
42632;SDS011;28261;53.304;-6.284;2023-03-01T04:18:31;3.75;;;0.70;;
42632;SDS011;28261;53.304;-6.284;2023-03-01T04:20:35;1.35;;;0.43;;
42632;SDS011;28261;53.304;-6.284;2023-03-01T04:22:39;1.63;;;0.57;;
42632;SDS011;28261;53.304;-6.284;2023-03-01T04:24:43;2.70;;;0.70;;
42632;SDS011;28261;53.304;-6.284;2023-03-01T04:26:47;0.50;;;0.35;;
42632;SDS011;28261;53.304;-6.284;2023-03-01T04:28:51;1.00;;;0.30;;
42632;SDS011;28261;53.304;-6.284;2023-03-01T04:30:54;2.65;;;1.02;;
42632;SDS011;28261;53.304;-6.284;2023-03-01T04:32:59;1.45;;;0.73;;
42632;SDS011;28261;53.304;-6.284;2023-03-01T04:35:01;1.95;;;0.75;;
42632;SDS011;28261;53.304;-6.284;2023-03-01T04:37:04;2.35;;;0.60;;
42632;SDS011;28261;53.304;-6.284;2023-03-01T04:39:08;0.57;;;0.52;;
42632;SDS011;28261;53.304;-6.284;2023-03-01T04:41:14;1.48;;;0.43;;
42632;SDS011;28261;53.304;-6.284;2023-03-01T04:43:20;1.85;;;0.30;;
42632;SDS011;28261;53.304;-6.284;2023-03-01T04:45:23;1.05;;;0.32;;
42632;SDS011;28261;53.304;-6.284;2023-03-01T04:47:27;1.60;;;0.63;;
42632;SDS011;28261;53.304;-6.284;2023-03-01T04:49:30;1.17;;;0.55;;
42632;SDS011;28261;53.304;-6.284;2023-03-01T04:51:33;1.17;;;0.60;;
42632;SDS011;28261;53.304;-6.284;2023-03-01T04:53:36;1.92;;;0.40;;
42632;SDS011;28261;53.304;-6.284;2023-03-01T04:55:40;4.22;;;1.42;;
42632;SDS011;28261;53.304;-6.284;2023-03-01T04:57:43;1.70;;;0.40;;
42632;SDS011;28261;53.304;-6.284;2023-03-01T04:59:48;4.50;;;0.93;;
42632;SDS011;28261;53.304;-6.284;2023-03-01T05:01:52;1.65;;;0.40;;
42632;SDS011;28261;53.304;-6.284;2023-03-01T05:03:57;1.83;;;0.52;;
42632;SDS011;28261;53.304;-6.284;2023-03-01T05:06:04;2.72;;;0.47;;
42632;SDS011;28261;53.304;-6.284;2023-03-01T05:08:08;3.35;;;0.63;;
42632;SDS011;28261;53.304;-6.284;2023-03-01T05:10:18;3.08;;;1.67;;
42632;SDS011;28261;53.304;-6.284;2023-03-01T05:12:22;3.45;;;0.50;;
42632;SDS011;28261;53.304;-6.284;2023-03-01T05:14:25;2.22;;;0.80;;
42632;SDS011;28261;53.304;-6.284;2023-03-01T05:16:31;2.08;;;0.40;;
42632;SDS011;28261;53.304;-6.284;2023-03-01T05:18:37;3.85;;;0.65;;
42632;SDS011;28261;53.304;-6.284;2023-03-01T05:20:41;1.42;;;0.82;;
42632;SDS011;28261;53.304;-6.284;2023-03-01T05:22:44;2.60;;;1.20;;
42632;SDS011;28261;53.304;-6.284;2023-03-01T05:24:47;3.72;;;1.13;;
42632;SDS011;28261;53.304;-6.284;2023-03-01T05:26:50;2.67;;;0.70;;
42632;SDS011;28261;53.304;-6.284;2023-03-01T05:28:54;0.70;;;0.50;;
42632;SDS011;28261;53.304;-6.284;2023-03-01T05:31:01;1.35;;;0.65;;
42632;SDS011;28261;53.304;-6.284;2023-03-01T05:33:06;3.03;;;0.65;;
42632;SDS011;28261;53.304;-6.284;2023-03-01T05:35:16;1.13;;;1.02;;
42632;SDS011;28261;53.304;-6.284;2023-03-01T05:37:20;2.67;;;0.60;;
42632;SDS011;28261;53.304;-6.284;2023-03-01T05:39:24;3.22;;;0.60;;
42632;SDS011;28261;53.304;-6.284;2023-03-01T05:41:29;4.47;;;0.82;;
42632;SDS011;28261;53.304;-6.284;2023-03-01T05:43:32;1.98;;;0.57;;
42632;SDS011;28261;53.304;-6.284;2023-03-01T05:45:37;2.72;;;0.60;;
42632;SDS011;28261;53.304;-6.284;2023-03-01T05:47:43;0.57;;;0.35;;
42632;SDS011;28261;53.304;-6.284;2023-03-01T05:49:49;1.15;;;0.50;;
42632;SDS011;28261;53.304;-6.284;2023-03-01T05:51:52;6.30;;;0.82;;
42632;SDS011;28261;53.304;-6.284;2023-03-01T05:53:56;0.40;;;0.30;;
42632;SDS011;28261;53.304;-6.284;2023-03-01T05:56:02;2.22;;;0.70;;
42632;SDS011;28261;53.304;-6.284;2023-03-01T05:58:07;3.33;;;0.60;;
42632;SDS011;28261;53.304;-6.284;2023-03-01T06:00:13;2.58;;;0.57;;
42632;SDS011;28261;53.304;-6.284;2023-03-01T06:02:18;2.08;;;0.47;;
42632;SDS011;28261;53.304;-6.284;2023-03-01T06:04:22;4.35;;;0.70;;
42632;SDS011;28261;53.304;-6.284;2023-03-01T06:06:27;3.85;;;1.25;;
42632;SDS011;28261;53.304;-6.284;2023-03-01T06:08:31;3.60;;;0.75;;
42632;SDS011;28261;53.304;-6.284;2023-03-01T06:10:35;2.88;;;1.42;;
42632;SDS011;28261;53.304;-6.284;2023-03-01T06:12:38;4.35;;;0.70;;
42632;SDS011;28261;53.304;-6.284;2023-03-01T06:14:43;2.85;;;1.27;;
42632;SDS011;28261;53.304;-6.284;2023-03-01T06:16:49;3.08;;;0.98;;
42632;SDS011;28261;53.304;-6.284;2023-03-01T06:18:52;6.25;;;0.90;;
42632;SDS011;28261;53.304;-6.284;2023-03-01T06:20:56;4.75;;;0.80;;
42632;SDS011;28261;53.304;-6.284;2023-03-01T06:23:01;6.13;;;0.98;;
42632;SDS011;28261;53.304;-6.284;2023-03-01T06:27:08;2.67;;;0.70;;
42632;SDS011;28261;53.304;-6.284;2023-03-01T06:29:12;1.85;;;0.95;;
42632;SDS011;28261;53.304;-6.284;2023-03-01T06:31:16;3.80;;;1.92;;
42632;SDS011;28261;53.304;-6.284;2023-03-01T06:33:19;2.30;;;0.98;;
42632;SDS011;28261;53.304;-6.284;2023-03-01T06:35:25;5.65;;;0.80;;
42632;SDS011;28261;53.304;-6.284;2023-03-01T06:37:31;2.60;;;1.60;;
42632;SDS011;28261;53.304;-6.284;2023-03-01T06:39:36;0.90;;;0.52;;
42632;SDS011;28261;53.304;-6.284;2023-03-01T06:43:43;3.33;;;0.80;;
42632;SDS011;28261;53.304;-6.284;2023-03-01T06:45:47;4.07;;;0.82;;
42632;SDS011;28261;53.304;-6.284;2023-03-01T06:47:50;1.90;;;0.50;;
42632;SDS011;28261;53.304;-6.284;2023-03-01T06:49:54;1.25;;;1.00;;
42632;SDS011;28261;53.304;-6.284;2023-03-01T06:51:58;1.45;;;0.50;;
42632;SDS011;28261;53.304;-6.284;2023-03-01T06:54:02;1.75;;;0.73;;
42632;SDS011;28261;53.304;-6.284;2023-03-01T06:56:07;1.67;;;0.52;;
42632;SDS011;28261;53.304;-6.284;2023-03-01T06:58:11;3.22;;;0.73;;
42632;SDS011;28261;53.304;-6.284;2023-03-01T07:00:15;1.83;;;0.90;;
42632;SDS011;28261;53.304;-6.284;2023-03-01T07:02:19;3.78;;;0.63;;
42632;SDS011;28261;53.304;-6.284;2023-03-01T07:04:23;3.45;;;0.75;;
42632;SDS011;28261;53.304;-6.284;2023-03-01T07:06:27;2.10;;;0.47;;
42632;SDS011;28261;53.304;-6.284;2023-03-01T07:08:31;3.47;;;0.55;;
42632;SDS011;28261;53.304;-6.284;2023-03-01T07:10:36;2.55;;;0.57;;
42632;SDS011;28261;53.304;-6.284;2023-03-01T07:12:41;5.47;;;1.35;;
42632;SDS011;28261;53.304;-6.284;2023-03-01T07:14:45;2.08;;;0.73;;
42632;SDS011;28261;53.304;-6.284;2023-03-01T07:16:49;4.90;;;0.75;;
42632;SDS011;28261;53.304;-6.284;2023-03-01T07:18:53;1.15;;;0.57;;
42632;SDS011;28261;53.304;-6.284;2023-03-01T07:20:58;1.05;;;0.68;;
42632;SDS011;28261;53.304;-6.284;2023-03-01T07:23:07;4.22;;;0.80;;
42632;SDS011;28261;53.304;-6.284;2023-03-01T07:25:10;3.30;;;1.02;;
42632;SDS011;28261;53.304;-6.284;2023-03-01T07:27:14;3.45;;;1.70;;
42632;SDS011;28261;53.304;-6.284;2023-03-01T07:29:19;3.45;;;0.77;;
42632;SDS011;28261;53.304;-6.284;2023-03-01T07:31:23;2.55;;;0.82;;
42632;SDS011;28261;53.304;-6.284;2023-03-01T07:33:29;5.63;;;1.00;;
42632;SDS011;28261;53.304;-6.284;2023-03-01T07:35:33;1.60;;;0.60;;
42632;SDS011;28261;53.304;-6.284;2023-03-01T07:37:36;5.55;;;1.23;;
42632;SDS011;28261;53.304;-6.284;2023-03-01T07:39:40;4.80;;;0.80;;
42632;SDS011;28261;53.304;-6.284;2023-03-01T07:41:44;4.07;;;0.88;;
42632;SDS011;28261;53.304;-6.284;2023-03-01T07:43:48;3.17;;;0.70;;
42632;SDS011;28261;53.304;-6.284;2023-03-01T07:45:53;3.85;;;0.60;;
42632;SDS011;28261;53.304;-6.284;2023-03-01T07:47:57;3.53;;;1.00;;
42632;SDS011;28261;53.304;-6.284;2023-03-01T07:50:00;1.92;;;1.13;;
42632;SDS011;28261;53.304;-6.284;2023-03-01T07:52:04;1.55;;;0.80;;
42632;SDS011;28261;53.304;-6.284;2023-03-01T07:54:07;2.42;;;0.70;;
42632;SDS011;28261;53.304;-6.284;2023-03-01T07:56:12;2.58;;;0.80;;
42632;SDS011;28261;53.304;-6.284;2023-03-01T07:58:16;3.80;;;0.63;;
42632;SDS011;28261;53.304;-6.284;2023-03-01T08:00:20;4.25;;;0.63;;
42632;SDS011;28261;53.304;-6.284;2023-03-01T08:02:25;2.42;;;0.60;;
42632;SDS011;28261;53.304;-6.284;2023-03-01T08:06:33;1.73;;;0.98;;
42632;SDS011;28261;53.304;-6.284;2023-03-01T08:08:37;4.53;;;0.52;;
42632;SDS011;28261;53.304;-6.284;2023-03-01T08:10:41;1.98;;;0.43;;
42632;SDS011;28261;53.304;-6.284;2023-03-01T08:12:45;5.53;;;0.90;;
42632;SDS011;28261;53.304;-6.284;2023-03-01T08:14:48;1.05;;;0.55;;
42632;SDS011;28261;53.304;-6.284;2023-03-01T08:16:52;0.95;;;0.43;;
42632;SDS011;28261;53.304;-6.284;2023-03-01T08:19:02;3.42;;;0.52;;
42632;SDS011;28261;53.304;-6.284;2023-03-01T08:21:07;0.80;;;0.50;;
42632;SDS011;28261;53.304;-6.284;2023-03-01T08:23:13;3.55;;;1.55;;
42632;SDS011;28261;53.304;-6.284;2023-03-01T08:25:17;2.20;;;0.50;;
42632;SDS011;28261;53.304;-6.284;2023-03-01T08:27:21;1.25;;;0.52;;
42632;SDS011;28261;53.304;-6.284;2023-03-01T08:29:26;4.10;;;0.93;;
42632;SDS011;28261;53.304;-6.284;2023-03-01T08:31:30;1.67;;;1.17;;
42632;SDS011;28261;53.304;-6.284;2023-03-01T08:33:37;2.47;;;0.85;;
42632;SDS011;28261;53.304;-6.284;2023-03-01T08:35:42;3.42;;;0.90;;
42632;SDS011;28261;53.304;-6.284;2023-03-01T08:39:49;2.60;;;0.63;;
42632;SDS011;28261;53.304;-6.284;2023-03-01T08:41:52;3.20;;;0.77;;
42632;SDS011;28261;53.304;-6.284;2023-03-01T08:43:56;4.03;;;0.77;;
42632;SDS011;28261;53.304;-6.284;2023-03-01T08:46:01;1.23;;;0.40;;
42632;SDS011;28261;53.304;-6.284;2023-03-01T08:48:05;2.05;;;0.45;;
42632;SDS011;28261;53.304;-6.284;2023-03-01T08:50:08;3.67;;;0.80;;
42632;SDS011;28261;53.304;-6.284;2023-03-01T08:52:14;1.92;;;1.55;;
42632;SDS011;28261;53.304;-6.284;2023-03-01T08:54:19;6.00;;;0.60;;
42632;SDS011;28261;53.304;-6.284;2023-03-01T08:56:23;2.13;;;0.60;;
42632;SDS011;28261;53.304;-6.284;2023-03-01T08:58:27;2.33;;;0.77;;
42632;SDS011;28261;53.304;-6.284;2023-03-01T09:00:30;2.38;;;0.68;;
42632;SDS011;28261;53.304;-6.284;2023-03-01T09:02:36;2.25;;;0.60;;
42632;SDS011;28261;53.304;-6.284;2023-03-01T09:04:40;3.90;;;0.75;;
42632;SDS011;28261;53.304;-6.284;2023-03-01T09:06:44;1.83;;;0.73;;
42632;SDS011;28261;53.304;-6.284;2023-03-01T09:08:49;2.58;;;0.63;;
42632;SDS011;28261;53.304;-6.284;2023-03-01T09:10:53;1.40;;;0.75;;
42632;SDS011;28261;53.304;-6.284;2023-03-01T09:12:57;2.90;;;1.20;;
42632;SDS011;28261;53.304;-6.284;2023-03-01T09:15:00;1.98;;;0.90;;
42632;SDS011;28261;53.304;-6.284;2023-03-01T09:17:04;3.90;;;0.50;;
42632;SDS011;28261;53.304;-6.284;2023-03-01T09:19:07;4.80;;;0.70;;
42632;SDS011;28261;53.304;-6.284;2023-03-01T09:21:11;1.23;;;0.85;;
42632;SDS011;28261;53.304;-6.284;2023-03-01T09:25:42;1.40;;;0.52;;
42632;SDS011;28261;53.304;-6.284;2023-03-01T09:27:45;1.02;;;0.57;;
42632;SDS011;28261;53.304;-6.284;2023-03-01T09:29:49;2.20;;;0.70;;
42632;SDS011;28261;53.304;-6.284;2023-03-01T09:31:53;1.40;;;0.65;;
42632;SDS011;28261;53.304;-6.284;2023-03-01T09:33:57;2.05;;;0.80;;
42632;SDS011;28261;53.304;-6.284;2023-03-01T09:36:02;1.55;;;0.55;;
42632;SDS011;28261;53.304;-6.284;2023-03-01T09:38:07;2.28;;;1.30;;
42632;SDS011;28261;53.304;-6.284;2023-03-01T09:40:12;1.58;;;0.73;;
42632;SDS011;28261;53.304;-6.284;2023-03-01T09:42:19;3.45;;;0.70;;
42632;SDS011;28261;53.304;-6.284;2023-03-01T09:44:27;2.47;;;0.73;;
42632;SDS011;28261;53.304;-6.284;2023-03-01T09:46:38;3.35;;;0.95;;
42632;SDS011;28261;53.304;-6.284;2023-03-01T09:48:45;1.10;;;0.77;;
42632;SDS011;28261;53.304;-6.284;2023-03-01T09:50:53;0.60;;;0.52;;
42632;SDS011;28261;53.304;-6.284;2023-03-01T09:53:00;4.63;;;0.50;;
42632;SDS011;28261;53.304;-6.284;2023-03-01T09:55:08;1.00;;;0.55;;
42632;SDS011;28261;53.304;-6.284;2023-03-01T09:57:17;0.60;;;0.60;;
42632;SDS011;28261;53.304;-6.284;2023-03-01T09:59:28;3.53;;;0.63;;
42632;SDS011;28261;53.304;-6.284;2023-03-01T10:01:38;0.68;;;0.68;;
42632;SDS011;28261;53.304;-6.284;2023-03-01T10:03:50;0.73;;;0.55;;
42632;SDS011;28261;53.304;-6.284;2023-03-01T10:06:27;1.25;;;0.85;;
42632;SDS011;28261;53.304;-6.284;2023-03-01T10:08:37;1.85;;;0.65;;
42632;SDS011;28261;53.304;-6.284;2023-03-01T10:10:45;3.20;;;0.52;;
42632;SDS011;28261;53.304;-6.284;2023-03-01T10:12:52;2.85;;;0.60;;
42632;SDS011;28261;53.304;-6.284;2023-03-01T10:14:59;2.83;;;0.55;;
42632;SDS011;28261;53.304;-6.284;2023-03-01T10:19:22;1.52;;;0.43;;
42632;SDS011;28261;53.304;-6.284;2023-03-01T10:21:29;0.73;;;0.63;;
42632;SDS011;28261;53.304;-6.284;2023-03-01T10:23:36;1.92;;;0.60;;
42632;SDS011;28261;53.304;-6.284;2023-03-01T10:25:46;1.15;;;0.32;;
42632;SDS011;28261;53.304;-6.284;2023-03-01T10:28:01;4.55;;;0.63;;
42632;SDS011;28261;53.304;-6.284;2023-03-01T10:30:10;1.75;;;0.73;;
42632;SDS011;28261;53.304;-6.284;2023-03-01T10:32:21;1.15;;;0.52;;
42632;SDS011;28261;53.304;-6.284;2023-03-01T10:34:27;1.52;;;0.80;;
42632;SDS011;28261;53.304;-6.284;2023-03-01T10:36:32;4.82;;;0.57;;
42632;SDS011;28261;53.304;-6.284;2023-03-01T10:40:57;3.75;;;0.55;;
42632;SDS011;28261;53.304;-6.284;2023-03-01T10:43:05;2.15;;;0.50;;
42632;SDS011;28261;53.304;-6.284;2023-03-01T10:45:16;2.90;;;0.88;;
42632;SDS011;28261;53.304;-6.284;2023-03-01T10:47:30;2.15;;;1.10;;
42632;SDS011;28261;53.304;-6.284;2023-03-01T10:49:34;2.97;;;0.52;;
42632;SDS011;28261;53.304;-6.284;2023-03-01T10:51:38;2.95;;;0.73;;
42632;SDS011;28261;53.304;-6.284;2023-03-01T10:53:47;2.88;;;1.52;;
42632;SDS011;28261;53.304;-6.284;2023-03-01T10:55:56;4.78;;;0.60;;
42632;SDS011;28261;53.304;-6.284;2023-03-01T10:58:07;0.93;;;0.47;;
42632;SDS011;28261;53.304;-6.284;2023-03-01T11:00:24;5.40;;;0.50;;
42632;SDS011;28261;53.304;-6.284;2023-03-01T11:02:30;2.78;;;0.50;;
42632;SDS011;28261;53.304;-6.284;2023-03-01T11:04:35;1.63;;;0.60;;
42632;SDS011;28261;53.304;-6.284;2023-03-01T11:06:40;1.08;;;0.52;;
42632;SDS011;28261;53.304;-6.284;2023-03-01T11:08:45;3.22;;;1.02;;
42632;SDS011;28261;53.304;-6.284;2023-03-01T11:10:50;1.23;;;0.32;;
42632;SDS011;28261;53.304;-6.284;2023-03-01T11:12:54;0.95;;;0.47;;
42632;SDS011;28261;53.304;-6.284;2023-03-01T11:15:19;2.53;;;0.70;;
42632;SDS011;28261;53.304;-6.284;2023-03-01T11:17:27;2.47;;;0.85;;
42632;SDS011;28261;53.304;-6.284;2023-03-01T11:19:42;1.00;;;0.43;;
42632;SDS011;28261;53.304;-6.284;2023-03-01T11:22:03;2.15;;;0.45;;
42632;SDS011;28261;53.304;-6.284;2023-03-01T11:24:11;3.92;;;1.23;;
42632;SDS011;28261;53.304;-6.284;2023-03-01T11:26:17;1.10;;;0.47;;
42632;SDS011;28261;53.304;-6.284;2023-03-01T11:28:24;1.70;;;0.70;;
42632;SDS011;28261;53.304;-6.284;2023-03-01T11:30:30;2.03;;;0.50;;
42632;SDS011;28261;53.304;-6.284;2023-03-01T11:32:39;2.60;;;0.50;;
42632;SDS011;28261;53.304;-6.284;2023-03-01T11:34:50;0.50;;;0.32;;
42632;SDS011;28261;53.304;-6.284;2023-03-01T11:36:58;2.28;;;0.60;;
42632;SDS011;28261;53.304;-6.284;2023-03-01T11:39:11;2.08;;;0.40;;
42632;SDS011;28261;53.304;-6.284;2023-03-01T11:41:23;2.97;;;0.52;;
42632;SDS011;28261;53.304;-6.284;2023-03-01T11:43:35;0.80;;;0.70;;
42632;SDS011;28261;53.304;-6.284;2023-03-01T11:48:49;2.72;;;0.40;;
42632;SDS011;28261;53.304;-6.284;2023-03-01T11:51:02;1.10;;;0.40;;
42632;SDS011;28261;53.304;-6.284;2023-03-01T11:53:18;3.40;;;0.80;;
42632;SDS011;28261;53.304;-6.284;2023-03-01T11:55:39;1.58;;;0.68;;
42632;SDS011;28261;53.304;-6.284;2023-03-01T11:57:58;1.45;;;0.40;;
42632;SDS011;28261;53.304;-6.284;2023-03-01T12:00:21;0.73;;;0.60;;
42632;SDS011;28261;53.304;-6.284;2023-03-01T12:05:20;1.58;;;0.50;;
42632;SDS011;28261;53.304;-6.284;2023-03-01T12:07:39;1.35;;;0.35;;
42632;SDS011;28261;53.304;-6.284;2023-03-01T12:10:00;1.20;;;0.63;;
42632;SDS011;28261;53.304;-6.284;2023-03-01T12:12:27;0.80;;;0.70;;
42632;SDS011;28261;53.304;-6.284;2023-03-01T12:14:44;5.88;;;0.80;;
42632;SDS011;28261;53.304;-6.284;2023-03-01T12:17:16;3.08;;;1.05;;
42632;SDS011;28261;53.304;-6.284;2023-03-01T12:19:48;5.25;;;0.55;;
42632;SDS011;28261;53.304;-6.284;2023-03-01T12:22:15;2.42;;;0.57;;
42632;SDS011;28261;53.304;-6.284;2023-03-01T12:27:07;1.13;;;0.50;;
42632;SDS011;28261;53.304;-6.284;2023-03-01T12:29:25;2.97;;;0.85;;
42632;SDS011;28261;53.304;-6.284;2023-03-01T12:31:41;1.95;;;0.30;;
42632;SDS011;28261;53.304;-6.284;2023-03-01T12:33:59;1.83;;;0.68;;
42632;SDS011;28261;53.304;-6.284;2023-03-01T12:36:18;3.00;;;0.60;;
42632;SDS011;28261;53.304;-6.284;2023-03-01T12:38:46;1.60;;;0.47;;
42632;SDS011;28261;53.304;-6.284;2023-03-01T12:41:00;1.67;;;0.40;;
42632;SDS011;28261;53.304;-6.284;2023-03-01T12:45:40;2.22;;;0.50;;
42632;SDS011;28261;53.304;-6.284;2023-03-01T12:47:55;3.47;;;0.60;;
42632;SDS011;28261;53.304;-6.284;2023-03-01T12:50:12;1.90;;;0.65;;
42632;SDS011;28261;53.304;-6.284;2023-03-01T12:52:24;5.65;;;0.75;;
42632;SDS011;28261;53.304;-6.284;2023-03-01T12:54:41;4.10;;;0.95;;
42632;SDS011;28261;53.304;-6.284;2023-03-01T12:56:45;2.00;;;0.50;;
42632;SDS011;28261;53.304;-6.284;2023-03-01T12:58:57;1.38;;;0.60;;
42632;SDS011;28261;53.304;-6.284;2023-03-01T13:01:10;1.00;;;0.80;;
42632;SDS011;28261;53.304;-6.284;2023-03-01T13:03:24;3.83;;;0.73;;
42632;SDS011;28261;53.304;-6.284;2023-03-01T13:05:39;2.50;;;0.88;;